createdAt,value
2019-04-04T00:00:14.349Z,2.77
2019-04-04T00:02:42.923Z,0.85
2019-04-04T00:05:11.371Z,2.15
2019-04-04T00:07:39.793Z,2.87
2019-04-04T00:10:08.583Z,1.98
2019-04-04T00:12:38.955Z,1.85
2019-04-04T00:15:07.332Z,1.42
2019-04-04T00:17:35.779Z,1.92
2019-04-04T00:20:06.751Z,1.57
2019-04-04T00:22:35.820Z,1.65
2019-04-04T00:25:05.534Z,1.52
2019-04-04T00:27:33.947Z,1.33
2019-04-04T00:30:02.374Z,1.05
2019-04-04T00:32:30.775Z,2.72
2019-04-04T00:34:59.838Z,1.27
2019-04-04T00:37:28.893Z,1.65
2019-04-04T00:39:57.309Z,2.22
2019-04-04T00:42:25.765Z,1.22
2019-04-04T00:44:55.773Z,1.60
2019-04-04T00:47:24.412Z,1.05
2019-04-04T00:49:52.823Z,1.87
2019-04-04T00:52:21.270Z,1.67
2019-04-04T00:54:49.682Z,1.35
2019-04-04T00:57:18.787Z,0.47
2019-04-04T00:59:47.821Z,1.25
2019-04-04T01:02:16.286Z,1.85
2019-04-04T01:04:44.690Z,1.40
2019-04-04T01:07:13.103Z,1.17
2019-04-04T01:09:41.517Z,0.90
2019-04-04T01:12:09.921Z,1.82
2019-04-04T01:14:38.352Z,1.22
2019-04-04T01:17:06.774Z,0.70
2019-04-04T01:19:35.181Z,1.50
2019-04-04T01:22:03.622Z,1.40
2019-04-04T01:24:32.062Z,1.40
2019-04-04T01:27:00.489Z,1.10
2019-04-04T01:29:28.917Z,0.57
2019-04-04T01:31:57.319Z,1.10
2019-04-04T01:34:25.710Z,2.42
2019-04-04T01:36:56.103Z,0.73
2019-04-04T01:39:24.272Z,1.10
2019-04-04T01:41:52.703Z,0.82
2019-04-04T01:44:21.140Z,1.40
2019-04-04T01:46:49.577Z,1.27
2019-04-04T01:49:20.830Z,1.00
2019-04-04T01:51:48.140Z,1.33
2019-04-04T01:54:16.552Z,0.70
2019-04-04T01:56:44.993Z,0.83
2019-04-04T01:59:13.388Z,0.93
2019-04-04T02:01:41.799Z,1.20
2019-04-04T02:04:10.226Z,0.63
2019-04-04T02:06:38.691Z,0.75
2019-04-04T02:09:07.741Z,0.98
2019-04-04T02:11:37.547Z,0.60
2019-04-04T02:14:06.389Z,0.57
2019-04-04T02:16:34.812Z,0.70
2019-04-04T02:19:03.217Z,0.80
2019-04-04T02:21:31.629Z,1.32
2019-04-04T02:24:01.619Z,0.60
2019-04-04T02:26:30.263Z,0.60
2019-04-04T02:28:58.681Z,1.10
2019-04-04T02:31:28.725Z,1.90
2019-04-04T02:33:57.161Z,1.05
2019-04-04T02:36:25.783Z,0.75
2019-04-04T02:39:09.649Z,1.00
2019-04-04T02:41:38.578Z,0.68
2019-04-04T02:44:07.573Z,0.55
2019-04-04T02:46:36.053Z,0.80
2019-04-04T02:49:04.535Z,0.80
2019-04-04T02:51:32.972Z,0.80
2019-04-04T02:54:01.377Z,1.82
2019-04-04T02:56:29.797Z,0.75
2019-04-04T02:58:58.437Z,1.15
2019-04-04T03:01:26.840Z,0.67
2019-04-04T03:03:55.446Z,1.20
2019-04-04T03:06:24.504Z,1.45
2019-04-04T03:08:53.662Z,1.00
2019-04-04T03:11:22.866Z,1.10
2019-04-04T03:13:51.384Z,1.45
2019-04-04T03:16:21.515Z,0.60
2019-04-04T03:18:49.961Z,0.50
2019-04-04T03:21:22.183Z,0.57
2019-04-04T03:23:48.535Z,0.47
2019-04-04T03:26:20.199Z,0.50
2019-04-04T03:28:47.120Z,0.50
2019-04-04T03:31:15.561Z,0.53
2019-04-04T03:33:43.989Z,0.90
2019-04-04T03:36:12.392Z,0.40
2019-04-04T03:38:40.798Z,1.03
2019-04-04T03:41:09.236Z,0.65
2019-04-04T03:43:37.640Z,0.82
2019-04-04T03:46:06.170Z,1.13
2019-04-04T03:48:34.548Z,0.77
2019-04-04T03:51:04.617Z,0.40
2019-04-04T03:53:33.157Z,1.72
2019-04-04T03:56:01.698Z,0.65
2019-04-04T03:58:30.190Z,1.13
2019-04-04T04:00:58.787Z,0.87
2019-04-04T04:03:27.240Z,1.15
2019-04-04T04:05:55.658Z,0.60
2019-04-04T04:08:24.099Z,0.80
2019-04-04T04:10:52.508Z,0.60
2019-04-04T04:13:20.925Z,0.42
2019-04-04T04:15:49.353Z,0.57
2019-04-04T04:18:20.570Z,0.88
2019-04-04T04:20:47.974Z,0.72
2019-04-04T04:23:16.389Z,0.68
2019-04-04T04:25:45.784Z,0.70
2019-04-04T04:28:14.221Z,0.65
2019-04-04T04:30:42.637Z,0.70
2019-04-04T04:33:11.067Z,0.37
2019-04-04T04:35:42.055Z,0.60
2019-04-04T04:38:09.658Z,0.40
2019-04-04T04:40:38.089Z,0.60
2019-04-04T04:43:06.489Z,1.20
2019-04-04T04:45:34.946Z,0.57
2019-04-04T04:48:03.362Z,0.70
2019-04-04T04:50:31.825Z,0.30
2019-04-04T04:53:00.233Z,0.40
2019-04-04T04:55:28.700Z,0.30
2019-04-04T04:57:57.117Z,0.60
2019-04-04T05:00:27.889Z,0.40
2019-04-04T05:02:56.552Z,0.50
2019-04-04T05:05:24.934Z,0.53
2019-04-04T05:07:54.855Z,0.40
2019-04-04T05:10:23.536Z,0.40
2019-04-04T05:12:53.120Z,0.85
2019-04-04T05:15:22.185Z,0.55
2019-04-04T05:17:50.595Z,0.45
2019-04-04T05:20:19.406Z,0.70
2019-04-04T05:22:47.831Z,0.60
2019-04-04T05:25:16.219Z,0.28
2019-04-04T05:27:44.646Z,0.65
2019-04-04T05:30:15.951Z,0.43
2019-04-04T05:32:43.333Z,1.98
2019-04-04T05:35:14.948Z,0.57
2019-04-04T05:37:42.095Z,1.07
2019-04-04T05:40:11.261Z,0.70
2019-04-04T05:42:39.834Z,0.62
2019-04-04T05:45:09.067Z,0.40
2019-04-04T05:47:37.559Z,0.50
2019-04-04T05:50:06.642Z,0.65
2019-04-04T05:52:35.048Z,0.30
2019-04-04T05:55:03.725Z,0.75
2019-04-04T05:57:32.152Z,0.65
2019-04-04T06:00:00.607Z,0.40
2019-04-04T06:02:29.064Z,1.15
2019-04-04T06:04:57.471Z,0.55
2019-04-04T06:07:25.901Z,0.33
2019-04-04T06:09:54.320Z,0.57
2019-04-04T06:12:22.978Z,0.68
2019-04-04T06:14:52.924Z,0.80
2019-04-04T06:17:21.356Z,0.28
2019-04-04T06:19:49.762Z,0.60
2019-04-04T06:22:19.084Z,0.40
2019-04-04T06:24:48.353Z,0.43
2019-04-04T06:27:16.785Z,1.40
2019-04-04T06:29:47.584Z,0.62
2019-04-04T06:32:15.343Z,0.37
2019-04-04T06:34:44.311Z,0.40
2019-04-04T06:37:13.267Z,0.97
2019-04-04T06:39:41.668Z,0.42
2019-04-04T06:42:11.384Z,0.65
2019-04-04T06:44:39.882Z,0.98
2019-04-04T06:47:08.309Z,0.30
2019-04-04T06:49:36.747Z,0.33
2019-04-04T06:52:05.158Z,0.42
2019-04-04T06:54:33.555Z,1.12
2019-04-04T06:57:03.895Z,0.45
2019-04-04T06:59:32.552Z,0.37
2019-04-04T07:02:01.337Z,0.82
2019-04-04T07:04:31.896Z,0.53
2019-04-04T07:06:59.913Z,0.60
2019-04-04T07:09:28.336Z,0.68
2019-04-04T07:11:56.785Z,0.45
2019-04-04T07:14:25.187Z,0.40
2019-04-04T07:16:53.703Z,3.40
2019-04-04T07:19:22.143Z,5.65
2019-04-04T07:21:51.345Z,17.57
2019-04-04T07:24:20.374Z,9.88
2019-04-04T07:26:48.811Z,9.08
2019-04-04T07:29:17.240Z,6.20
2019-04-04T07:31:45.655Z,9.43
2019-04-04T07:34:14.313Z,7.03
2019-04-04T07:36:42.763Z,8.23
2019-04-04T07:39:12.445Z,4.55
2019-04-04T07:41:44.761Z,2.83
2019-04-04T07:44:11.142Z,7.90
2019-04-04T07:46:41.196Z,7.27
2019-04-04T07:49:09.745Z,3.20
2019-04-04T07:51:38.177Z,6.15
2019-04-04T07:54:07.280Z,3.22
2019-04-04T07:56:36.395Z,2.67
2019-04-04T07:59:04.822Z,2.37
2019-04-04T08:01:33.246Z,6.50
2019-04-04T08:04:01.675Z,3.20
2019-04-04T08:06:30.087Z,2.77
2019-04-04T08:08:58.502Z,3.40
2019-04-04T08:11:27.212Z,2.57
2019-04-04T08:13:55.618Z,2.85
2019-04-04T08:16:24.085Z,5.85
2019-04-04T08:18:52.450Z,3.37
2019-04-04T08:21:20.903Z,2.77
2019-04-04T08:23:49.319Z,1.35
2019-04-04T08:26:17.749Z,2.17
2019-04-04T08:28:46.157Z,2.25
2019-04-04T08:31:14.597Z,1.85
2019-04-04T08:33:43.019Z,1.27
2019-04-04T08:36:11.443Z,2.33
2019-04-04T08:38:39.880Z,3.67
2019-04-04T08:41:08.276Z,0.78
2019-04-04T08:43:36.702Z,1.75
2019-04-04T08:46:05.138Z,1.25
2019-04-04T08:48:33.580Z,2.10
2019-04-04T08:51:01.999Z,1.00
2019-04-04T08:53:39.802Z,3.67
2019-04-04T08:56:00.621Z,4.17
2019-04-04T08:58:29.078Z,1.77
2019-04-04T09:00:57.440Z,2.90
2019-04-04T09:03:25.876Z,4.30
2019-04-04T09:05:54.270Z,3.20
2019-04-04T09:08:22.694Z,2.93
2019-04-04T09:10:51.128Z,1.40
2019-04-04T09:13:19.530Z,3.35
2019-04-04T09:15:47.947Z,1.65
2019-04-04T09:18:16.350Z,1.32
2019-04-04T09:20:44.852Z,0.90
2019-04-04T09:23:13.263Z,1.42
2019-04-04T09:25:41.754Z,3.57
2019-04-04T09:28:10.190Z,1.77
2019-04-04T09:30:38.624Z,2.37
2019-04-04T09:33:07.064Z,1.40
2019-04-04T09:35:35.560Z,1.33
2019-04-04T09:38:04.172Z,2.47
2019-04-04T09:40:32.570Z,2.85
2019-04-04T09:43:01.004Z,0.88
2019-04-04T09:45:29.419Z,1.25
2019-04-04T09:47:57.842Z,1.02
2019-04-04T09:50:26.246Z,1.52
2019-04-04T09:52:54.656Z,1.32
2019-04-04T09:55:23.062Z,1.05
2019-04-04T09:57:51.488Z,0.70
2019-04-04T10:00:22.128Z,1.47
2019-04-04T10:02:51.477Z,2.85
2019-04-04T10:05:20.036Z,2.02
2019-04-04T10:07:48.452Z,1.10
2019-04-04T10:10:17.435Z,1.40
2019-04-04T10:12:45.838Z,1.40
2019-04-04T10:15:14.821Z,1.00
2019-04-04T10:17:43.623Z,0.50
2019-04-04T10:20:12.172Z,0.60
2019-04-04T10:22:40.610Z,0.72
2019-04-04T10:25:09.215Z,1.25
2019-04-04T10:27:37.627Z,1.32
2019-04-04T10:30:08.703Z,1.02
2019-04-04T10:32:37.112Z,2.30
2019-04-04T10:35:07.487Z,1.02
2019-04-04T10:37:35.894Z,0.45
2019-04-04T10:40:06.753Z,1.07
2019-04-04T10:42:35.172Z,1.25
2019-04-04T10:45:04.465Z,1.25
2019-04-04T10:47:32.894Z,0.62
2019-04-04T10:50:01.300Z,0.80
2019-04-04T10:52:29.800Z,1.67
2019-04-04T10:55:01.257Z,1.17
2019-04-04T10:57:28.382Z,0.60
2019-04-04T10:59:56.798Z,0.80
2019-04-04T11:02:25.251Z,1.05
2019-04-04T11:04:53.695Z,0.53
2019-04-04T11:07:22.121Z,0.75
2019-04-04T11:09:50.547Z,0.57
2019-04-04T11:12:18.937Z,0.75
2019-04-04T11:14:47.371Z,1.60
2019-04-04T11:17:15.768Z,1.07
2019-04-04T11:19:44.221Z,2.05
2019-04-04T11:22:12.634Z,1.40
2019-04-04T11:24:41.050Z,0.53
2019-04-04T11:27:09.456Z,1.42
2019-04-04T11:29:37.873Z,0.82
2019-04-04T11:32:06.380Z,0.95
2019-04-04T11:34:34.804Z,2.40
2019-04-04T11:37:03.213Z,2.12
2019-04-04T11:39:31.647Z,0.50
2019-04-04T11:42:00.052Z,0.55
2019-04-04T11:44:30.732Z,1.20
2019-04-04T11:46:58.600Z,0.62
2019-04-04T11:49:27.051Z,1.20
2019-04-04T11:51:55.455Z,2.15
2019-04-04T11:54:23.871Z,0.72
2019-04-04T11:56:52.323Z,0.53
2019-04-04T11:59:20.752Z,0.57
2019-04-04T12:01:50.931Z,0.40
2019-04-04T12:04:19.346Z,0.95
2019-04-04T12:06:47.853Z,0.85
2019-04-04T12:09:16.258Z,0.98
2019-04-04T12:11:44.684Z,1.72
2019-04-04T12:14:13.100Z,0.70
2019-04-04T12:16:42.504Z,0.50
2019-04-04T12:19:10.931Z,0.42
2019-04-04T12:21:39.364Z,0.62
2019-04-04T12:24:07.779Z,1.00
2019-04-04T12:26:36.281Z,0.60
2019-04-04T12:29:04.695Z,1.02
2019-04-04T12:31:33.146Z,0.70
2019-04-04T12:34:02.257Z,1.00
2019-04-04T12:36:30.795Z,1.30
2019-04-04T12:38:59.251Z,0.53
2019-04-04T12:41:28.306Z,0.60
2019-04-04T12:43:56.871Z,0.55
2019-04-04T12:46:25.372Z,0.65
2019-04-04T12:48:53.784Z,0.85
2019-04-04T12:51:22.190Z,0.80
2019-04-04T12:53:50.622Z,0.37
2019-04-04T12:56:19.037Z,0.50
2019-04-04T12:58:47.495Z,0.80
2019-04-04T13:01:15.920Z,0.82
2019-04-04T13:03:44.353Z,0.60
2019-04-04T13:06:12.793Z,0.47
2019-04-04T13:08:41.232Z,0.45
2019-04-04T13:11:09.668Z,1.30
2019-04-04T13:13:38.445Z,0.57
2019-04-04T13:16:06.981Z,0.85
2019-04-04T13:18:35.401Z,0.80
2019-04-04T13:21:03.957Z,1.17
2019-04-04T13:23:32.404Z,0.80
2019-04-04T13:26:00.806Z,0.80
2019-04-04T13:28:29.237Z,0.53
2019-04-04T13:30:57.687Z,1.20
2019-04-04T13:33:26.126Z,0.62
2019-04-04T13:35:54.557Z,1.57
2019-04-04T13:38:22.952Z,0.68
2019-04-04T13:40:51.371Z,0.50
2019-04-04T13:43:22.244Z,0.40
2019-04-04T13:45:49.943Z,0.50
2019-04-04T13:48:18.415Z,0.60
2019-04-04T13:50:46.876Z,0.37
2019-04-04T13:53:15.275Z,0.78
2019-04-04T13:55:43.682Z,1.07
2019-04-04T13:58:12.441Z,0.50
2019-04-04T14:00:40.904Z,0.50
2019-04-04T14:03:09.339Z,0.80
2019-04-04T14:05:37.763Z,1.20
2019-04-04T14:08:06.469Z,0.62
2019-04-04T14:10:35.079Z,1.02
2019-04-04T14:13:03.520Z,0.98
2019-04-04T14:15:32.161Z,1.47
2019-04-04T14:18:00.566Z,0.90
2019-04-04T14:20:29.007Z,0.40
2019-04-04T14:22:57.426Z,1.22
2019-04-04T14:25:29.278Z,0.42
2019-04-04T14:27:57.874Z,0.20
2019-04-04T14:30:26.320Z,0.72
2019-04-04T14:32:54.757Z,0.88
2019-04-04T14:35:23.214Z,0.60
2019-04-04T14:37:54.425Z,1.40
2019-04-04T14:40:21.838Z,0.82
2019-04-04T14:42:50.240Z,1.22
2019-04-04T14:45:18.683Z,1.75
2019-04-04T14:47:47.111Z,0.60
2019-04-04T14:50:15.596Z,0.40
2019-04-04T14:52:44.032Z,0.70
2019-04-04T14:55:12.577Z,0.68
2019-04-04T14:57:40.999Z,0.55
2019-04-04T15:00:11.487Z,0.98
2019-04-04T15:02:39.930Z,0.57
2019-04-04T15:05:08.540Z,0.78
2019-04-04T15:07:36.991Z,0.33
2019-04-04T15:10:05.765Z,0.55
2019-04-04T15:12:34.209Z,0.90
2019-04-04T15:15:02.669Z,0.72
2019-04-04T15:17:31.105Z,0.33
2019-04-04T15:19:59.538Z,0.65
2019-04-04T15:22:27.962Z,1.37
2019-04-04T15:24:56.390Z,0.88
2019-04-04T15:27:24.868Z,1.12
2019-04-04T15:29:53.299Z,0.70
2019-04-04T15:32:21.734Z,0.30
2019-04-04T15:34:50.242Z,0.47
2019-04-04T15:37:18.691Z,0.42
2019-04-04T15:39:47.102Z,0.90
2019-04-04T15:42:15.554Z,2.25
2019-04-04T15:44:43.968Z,0.60
2019-04-04T15:47:12.397Z,0.70
2019-04-04T15:49:40.819Z,0.65
2019-04-04T15:52:09.247Z,0.60
2019-04-04T15:54:37.676Z,0.50
2019-04-04T15:57:06.111Z,0.40
2019-04-04T15:59:34.519Z,0.50
2019-04-04T16:02:03.143Z,1.27
2019-04-04T16:04:31.557Z,1.00
2019-04-04T16:07:00.058Z,0.82
2019-04-04T16:09:28.450Z,0.60
2019-04-04T16:11:56.899Z,1.02
2019-04-04T16:14:25.312Z,0.98
2019-04-04T16:16:53.744Z,0.45
2019-04-04T16:19:22.250Z,1.00
2019-04-04T16:21:50.663Z,0.65
2019-04-04T16:24:31.149Z,1.72
2019-04-04T16:26:59.562Z,0.30
2019-04-04T16:29:27.999Z,0.60
2019-04-04T16:31:56.428Z,0.50
2019-04-04T16:34:24.826Z,0.50
2019-04-04T16:36:53.257Z,0.60
2019-04-04T16:39:21.697Z,0.57
2019-04-04T16:42:01.481Z,0.57
2019-04-04T16:44:20.302Z,0.40
2019-04-04T16:46:48.717Z,0.60
2019-04-04T16:49:17.160Z,0.68
2019-04-04T16:51:45.588Z,0.78
2019-04-04T16:54:14.000Z,1.02
2019-04-04T16:56:42.442Z,0.78
2019-04-04T16:59:10.857Z,0.40
2019-04-04T17:01:39.269Z,1.00
2019-04-04T17:04:07.771Z,0.60
2019-04-04T17:06:36.221Z,0.60
2019-04-04T17:09:06.953Z,0.78
2019-04-04T17:11:35.366Z,0.55
2019-04-04T17:14:03.803Z,1.72
2019-04-04T17:16:32.218Z,1.00
2019-04-04T17:19:00.662Z,0.72
2019-04-04T17:21:29.082Z,1.25
2019-04-04T17:23:57.491Z,0.63
2019-04-04T17:26:25.912Z,0.40
2019-04-04T17:28:54.323Z,0.50
2019-04-04T17:31:22.786Z,0.30
2019-04-04T17:33:51.573Z,0.57
2019-04-04T17:36:21.447Z,0.70
2019-04-04T17:38:50.191Z,0.40
2019-04-04T17:41:18.602Z,1.55
2019-04-04T17:43:47.386Z,0.55
2019-04-04T17:46:16.005Z,0.50
2019-04-04T17:48:45.008Z,0.50
2019-04-04T17:51:13.534Z,0.68
2019-04-04T17:53:42.408Z,0.40
2019-04-04T17:56:11.124Z,0.57
2019-04-04T17:58:39.587Z,2.00
2019-04-04T18:01:09.778Z,0.50
2019-04-04T18:03:38.254Z,0.50
2019-04-04T18:06:07.040Z,0.60
2019-04-04T18:08:35.527Z,0.65
2019-04-04T18:11:04.129Z,0.47
2019-04-04T18:13:32.618Z,0.88
2019-04-04T18:16:01.063Z,0.53
2019-04-04T18:18:29.488Z,0.62
2019-04-04T18:20:57.901Z,0.30
2019-04-04T18:23:26.378Z,0.85
2019-04-04T18:25:54.794Z,0.62
2019-04-04T18:28:23.223Z,0.78
2019-04-04T18:30:52.210Z,0.53
2019-04-04T18:33:20.700Z,0.47
2019-04-04T18:35:49.093Z,0.70
2019-04-04T18:38:17.514Z,1.12
2019-04-04T18:40:45.971Z,0.68
2019-04-04T18:43:14.426Z,1.98
2019-04-04T18:45:42.845Z,1.27
2019-04-04T18:48:11.284Z,1.82
2019-04-04T18:50:39.725Z,0.75
2019-04-04T18:53:08.193Z,1.00
2019-04-04T18:55:36.793Z,3.22
2019-04-04T18:58:05.221Z,2.67
2019-04-04T19:00:33.668Z,1.65
2019-04-04T19:03:02.188Z,1.55
2019-04-04T19:05:30.625Z,1.32
2019-04-04T19:07:59.040Z,2.70
2019-04-04T19:10:27.702Z,0.70
2019-04-04T19:13:05.179Z,1.02
2019-04-04T19:15:26.275Z,1.45
2019-04-04T19:17:54.697Z,1.15
2019-04-04T19:20:23.277Z,1.37
2019-04-04T19:22:51.691Z,1.37
2019-04-04T19:25:20.205Z,2.05
2019-04-04T19:27:48.610Z,1.13
2019-04-04T19:30:18.255Z,3.07
2019-04-04T19:32:46.686Z,2.43
2019-04-04T19:35:16.197Z,1.12
2019-04-04T19:37:44.648Z,2.63
2019-04-04T19:40:14.502Z,1.17
2019-04-04T19:42:42.927Z,2.80
2019-04-04T19:45:11.748Z,3.08
2019-04-04T19:47:40.285Z,2.47
2019-04-04T19:50:11.829Z,1.73
2019-04-04T19:52:40.412Z,2.33
2019-04-04T19:55:09.136Z,2.30
2019-04-04T19:57:37.651Z,1.12
2019-04-04T20:00:10.105Z,2.00
2019-04-04T20:02:38.530Z,2.70
2019-04-04T20:05:08.105Z,2.08
2019-04-04T20:07:36.513Z,1.77
2019-04-04T20:10:06.663Z,6.70
2019-04-04T20:12:35.161Z,3.90
2019-04-04T20:15:04.531Z,1.45
2019-04-04T20:17:32.961Z,1.45
2019-04-04T20:20:01.388Z,1.72
2019-04-04T20:22:29.797Z,3.58
2019-04-04T20:24:58.260Z,2.45
2019-04-04T20:27:26.682Z,0.65
2019-04-04T20:29:55.104Z,1.45
2019-04-04T20:32:23.591Z,1.50
2019-04-04T20:34:51.975Z,4.45
2019-04-04T20:37:20.420Z,3.50
2019-04-04T20:39:48.840Z,4.87
2019-04-04T20:42:17.281Z,12.43
2019-04-04T20:44:45.717Z,10.88
2019-04-04T20:47:14.155Z,24.07
2019-04-04T20:49:42.582Z,5.70
2019-04-04T20:52:11.011Z,6.12
2019-04-04T20:54:39.420Z,11.28
2019-04-04T20:57:07.844Z,10.80
2019-04-04T20:59:36.266Z,9.90
2019-04-04T21:02:04.667Z,9.50
2019-04-04T21:04:33.089Z,8.45
2019-04-04T21:07:01.515Z,15.08
2019-04-04T21:09:29.950Z,21.43
2019-04-04T21:11:58.346Z,8.30
2019-04-04T21:14:26.750Z,8.37
2019-04-04T21:16:55.183Z,12.40
2019-04-04T21:19:23.609Z,6.30
2019-04-04T21:21:52.050Z,12.70
2019-04-04T21:24:20.451Z,8.40
2019-04-04T21:26:48.897Z,9.90
2019-04-04T21:29:17.287Z,5.50
2019-04-04T21:31:45.717Z,8.13
2019-04-04T21:34:16.990Z,6.65
2019-04-04T21:36:44.319Z,9.97
2019-04-04T21:39:12.713Z,9.87
2019-04-04T21:41:41.141Z,7.33
2019-04-04T21:44:09.577Z,6.45
2019-04-04T21:46:37.995Z,13.37
2019-04-04T21:49:06.404Z,8.30
2019-04-04T21:51:34.841Z,6.45
2019-04-04T21:54:03.327Z,4.55
2019-04-04T21:56:31.756Z,8.50
2019-04-04T21:59:00.204Z,5.45
2019-04-04T22:01:28.605Z,8.87
2019-04-04T22:03:57.031Z,6.10
2019-04-04T22:06:25.523Z,6.00
2019-04-04T22:08:53.933Z,6.73
2019-04-04T22:11:22.377Z,5.05
2019-04-04T22:13:50.968Z,7.40
2019-04-04T22:16:19.405Z,6.55
2019-04-04T22:18:47.813Z,5.97
2019-04-04T22:21:16.241Z,2.40
2019-04-04T22:23:44.685Z,4.35
2019-04-04T22:26:13.131Z,7.90
2019-04-04T22:28:41.564Z,4.40
2019-04-04T22:31:09.965Z,3.70
2019-04-04T22:33:38.404Z,3.27
2019-04-04T22:36:06.816Z,5.63
2019-04-04T22:38:35.246Z,3.60
2019-04-04T22:41:03.832Z,1.20
2019-04-04T22:43:32.273Z,4.73
2019-04-04T22:46:00.676Z,1.75
2019-04-04T22:48:29.118Z,3.37
2019-04-04T22:50:57.524Z,5.42
2019-04-04T22:53:25.941Z,3.03
2019-04-04T22:55:54.348Z,3.67
2019-04-04T22:58:28.532Z,6.67
2019-04-04T23:00:52.926Z,2.77
2019-04-04T23:03:22.309Z,4.17
2019-04-04T23:05:50.809Z,3.72
2019-04-04T23:08:19.220Z,3.80
2019-04-04T23:10:47.636Z,5.53
2019-04-04T23:13:16.036Z,1.80
2019-04-04T23:15:44.461Z,3.40
2019-04-04T23:18:12.902Z,2.12
2019-04-04T23:20:41.588Z,2.55
2019-04-04T23:23:09.995Z,2.90
2019-04-04T23:25:38.404Z,1.85
2019-04-04T23:28:06.821Z,1.85
2019-04-04T23:30:35.239Z,2.50
2019-04-04T23:33:03.657Z,2.87
2019-04-04T23:35:32.066Z,1.60
2019-04-04T23:38:00.505Z,2.58
2019-04-04T23:40:28.922Z,3.93
2019-04-04T23:42:57.343Z,1.25
2019-04-04T23:45:25.782Z,2.62
2019-04-04T23:47:54.186Z,3.60
2019-04-04T23:50:22.611Z,1.60
2019-04-04T23:52:51.029Z,4.57
2019-04-04T23:55:19.432Z,1.60
2019-04-04T23:57:47.861Z,2.47
